sensor_id;sensor_type;location;lat;lon;timestamp;temperature;humidity
23748;DHT22;12054;53.662;10.126;2023-02-20T00:00:09;5.50;99.90
23748;DHT22;12054;53.662;10.126;2023-02-20T00:02:40;5.50;99.90
23748;DHT22;12054;53.662;10.126;2023-02-20T00:05:05;5.60;99.90
23748;DHT22;12054;53.662;10.126;2023-02-20T00:07:31;5.60;99.90
23748;DHT22;12054;53.662;10.126;2023-02-20T00:09:56;5.50;99.90
23748;DHT22;12054;53.662;10.126;2023-02-20T00:12:22;5.50;99.90
23748;DHT22;12054;53.662;10.126;2023-02-20T00:14:47;5.60;99.90
23748;DHT22;12054;53.662;10.126;2023-02-20T00:17:13;5.60;99.90
23748;DHT22;12054;53.662;10.126;2023-02-20T00:19:38;5.60;99.90
23748;DHT22;12054;53.662;10.126;2023-02-20T00:22:04;5.60;99.90
23748;DHT22;12054;53.662;10.126;2023-02-20T00:24:29;5.60;99.90
23748;DHT22;12054;53.662;10.126;2023-02-20T00:26:55;5.60;99.90
23748;DHT22;12054;53.662;10.126;2023-02-20T00:29:22;5.60;99.90
23748;DHT22;12054;53.662;10.126;2023-02-20T00:31:55;5.60;99.90
23748;DHT22;12054;53.662;10.126;2023-02-20T00:34:22;5.60;99.90
23748;DHT22;12054;53.662;10.126;2023-02-20T00:36:48;5.60;99.90
23748;DHT22;12054;53.662;10.126;2023-02-20T00:39:14;5.60;99.90
23748;DHT22;12054;53.662;10.126;2023-02-20T00:41:39;5.60;99.90
23748;DHT22;12054;53.662;10.126;2023-02-20T00:44:05;5.60;99.90
23748;DHT22;12054;53.662;10.126;2023-02-20T00:46:31;5.60;99.90
23748;DHT22;12054;53.662;10.126;2023-02-20T00:48:56;5.60;99.90
23748;DHT22;12054;53.662;10.126;2023-02-20T00:51:22;5.60;99.90
23748;DHT22;12054;53.662;10.126;2023-02-20T00:53:47;5.60;99.90
23748;DHT22;12054;53.662;10.126;2023-02-20T00:56:13;5.60;99.90
23748;DHT22;12054;53.662;10.126;2023-02-20T00:58:39;5.60;99.90
23748;DHT22;12054;53.662;10.126;2023-02-20T01:01:05;5.60;99.90
23748;DHT22;12054;53.662;10.126;2023-02-20T01:03:30;5.60;99.90
23748;DHT22;12054;53.662;10.126;2023-02-20T01:05:56;5.60;99.90
23748;DHT22;12054;53.662;10.126;2023-02-20T01:08:21;5.70;99.90
23748;DHT22;12054;53.662;10.126;2023-02-20T01:10:47;5.60;99.90
23748;DHT22;12054;53.662;10.126;2023-02-20T01:13:12;5.70;99.90
23748;DHT22;12054;53.662;10.126;2023-02-20T01:15:38;5.70;99.90
23748;DHT22;12054;53.662;10.126;2023-02-20T01:18:03;5.70;99.90
23748;DHT22;12054;53.662;10.126;2023-02-20T01:20:30;5.70;99.90
23748;DHT22;12054;53.662;10.126;2023-02-20T01:22:57;5.70;99.90
23748;DHT22;12054;53.662;10.126;2023-02-20T01:25:22;5.70;99.90
23748;DHT22;12054;53.662;10.126;2023-02-20T01:27:48;5.70;99.90
23748;DHT22;12054;53.662;10.126;2023-02-20T01:30:14;5.70;99.90
23748;DHT22;12054;53.662;10.126;2023-02-20T01:32:39;5.70;99.90
23748;DHT22;12054;53.662;10.126;2023-02-20T01:35:05;5.80;99.90
23748;DHT22;12054;53.662;10.126;2023-02-20T01:37:31;5.70;99.90
23748;DHT22;12054;53.662;10.126;2023-02-20T01:39:56;5.80;99.90
23748;DHT22;12054;53.662;10.126;2023-02-20T01:42:24;5.80;99.90
23748;DHT22;12054;53.662;10.126;2023-02-20T01:44:50;5.80;99.90
23748;DHT22;12054;53.662;10.126;2023-02-20T01:47:21;5.80;99.90
23748;DHT22;12054;53.662;10.126;2023-02-20T01:49:55;5.80;99.90
23748;DHT22;12054;53.662;10.126;2023-02-20T01:52:23;5.80;99.90
23748;DHT22;12054;53.662;10.126;2023-02-20T01:55:11;5.90;99.90
23748;DHT22;12054;53.662;10.126;2023-02-20T01:57:41;5.90;99.90
23748;DHT22;12054;53.662;10.126;2023-02-20T02:00:10;5.90;99.90
23748;DHT22;12054;53.662;10.126;2023-02-20T02:02:44;5.90;99.90
23748;DHT22;12054;53.662;10.126;2023-02-20T02:05:11;5.90;99.90
23748;DHT22;12054;53.662;10.126;2023-02-20T02:07:37;5.90;99.90
23748;DHT22;12054;53.662;10.126;2023-02-20T02:10:06;6.00;99.90
23748;DHT22;12054;53.662;10.126;2023-02-20T02:12:32;6.00;99.90
23748;DHT22;12054;53.662;10.126;2023-02-20T02:14:58;6.00;99.90
23748;DHT22;12054;53.662;10.126;2023-02-20T02:20:28;6.00;99.90
23748;DHT22;12054;53.662;10.126;2023-02-20T02:25:55;6.10;99.90
23748;DHT22;12054;53.662;10.126;2023-02-20T02:28:53;6.10;99.90
23748;DHT22;12054;53.662;10.126;2023-02-20T02:32:00;6.10;99.90
23748;DHT22;12054;53.662;10.126;2023-02-20T02:34:49;6.10;99.90
23748;DHT22;12054;53.662;10.126;2023-02-20T02:37:45;6.10;99.90
23748;DHT22;12054;53.662;10.126;2023-02-20T02:42:51;6.10;99.90
23748;DHT22;12054;53.662;10.126;2023-02-20T02:45:33;6.20;99.90
23748;DHT22;12054;53.662;10.126;2023-02-20T02:48:25;6.20;99.90
23748;DHT22;12054;53.662;10.126;2023-02-20T02:51:02;6.20;99.90
23748;DHT22;12054;53.662;10.126;2023-02-20T02:53:29;6.20;99.90
23748;DHT22;12054;53.662;10.126;2023-02-20T02:55:55;6.20;99.90
23748;DHT22;12054;53.662;10.126;2023-02-20T02:58:20;6.20;99.90
23748;DHT22;12054;53.662;10.126;2023-02-20T03:00:54;6.20;99.90
23748;DHT22;12054;53.662;10.126;2023-02-20T03:03:24;6.20;99.90
23748;DHT22;12054;53.662;10.126;2023-02-20T03:06:21;6.20;99.90
23748;DHT22;12054;53.662;10.126;2023-02-20T03:08:55;6.20;99.90
23748;DHT22;12054;53.662;10.126;2023-02-20T03:11:26;6.20;99.90
23748;DHT22;12054;53.662;10.126;2023-02-20T03:16:56;6.20;99.90
23748;DHT22;12054;53.662;10.126;2023-02-20T03:19:32;6.20;99.90
23748;DHT22;12054;53.662;10.126;2023-02-20T03:22:00;6.20;99.90
23748;DHT22;12054;53.662;10.126;2023-02-20T03:24:29;6.20;99.90
23748;DHT22;12054;53.662;10.126;2023-02-20T03:26:56;6.20;99.90
23748;DHT22;12054;53.662;10.126;2023-02-20T03:29:30;6.20;99.90
23748;DHT22;12054;53.662;10.126;2023-02-20T03:32:07;6.20;99.90
23748;DHT22;12054;53.662;10.126;2023-02-20T03:34:53;6.30;99.90
23748;DHT22;12054;53.662;10.126;2023-02-20T03:37:39;6.30;99.90
23748;DHT22;12054;53.662;10.126;2023-02-20T03:40:25;6.30;99.90
23748;DHT22;12054;53.662;10.126;2023-02-20T03:43:14;6.30;99.90
23748;DHT22;12054;53.662;10.126;2023-02-20T03:45:57;6.30;99.90
23748;DHT22;12054;53.662;10.126;2023-02-20T03:48:38;6.30;99.90
23748;DHT22;12054;53.662;10.126;2023-02-20T03:51:05;6.30;99.90
23748;DHT22;12054;53.662;10.126;2023-02-20T03:53:50;6.30;99.90
23748;DHT22;12054;53.662;10.126;2023-02-20T03:56:23;6.40;99.90
23748;DHT22;12054;53.662;10.126;2023-02-20T03:58:54;6.40;99.90
23748;DHT22;12054;53.662;10.126;2023-02-20T04:01:24;6.40;99.90
23748;DHT22;12054;53.662;10.126;2023-02-20T04:03:53;6.40;99.90
23748;DHT22;12054;53.662;10.126;2023-02-20T04:06:21;6.40;99.90
23748;DHT22;12054;53.662;10.126;2023-02-20T04:08:56;6.40;99.90
23748;DHT22;12054;53.662;10.126;2023-02-20T04:11:29;6.40;99.90
23748;DHT22;12054;53.662;10.126;2023-02-20T04:13:57;6.40;99.90
23748;DHT22;12054;53.662;10.126;2023-02-20T04:16:24;6.40;99.90
23748;DHT22;12054;53.662;10.126;2023-02-20T04:18:50;6.50;99.90
23748;DHT22;12054;53.662;10.126;2023-02-20T04:21:24;6.50;99.90
23748;DHT22;12054;53.662;10.126;2023-02-20T04:24:05;6.50;99.90
23748;DHT22;12054;53.662;10.126;2023-02-20T04:26:32;6.50;99.90
23748;DHT22;12054;53.662;10.126;2023-02-20T04:28:58;6.50;99.90
23748;DHT22;12054;53.662;10.126;2023-02-20T04:31:24;6.50;99.90
23748;DHT22;12054;53.662;10.126;2023-02-20T04:33:50;6.50;99.90
23748;DHT22;12054;53.662;10.126;2023-02-20T04:36:16;6.50;99.90
23748;DHT22;12054;53.662;10.126;2023-02-20T04:38:41;6.50;99.90
23748;DHT22;12054;53.662;10.126;2023-02-20T04:41:07;6.50;99.90
23748;DHT22;12054;53.662;10.126;2023-02-20T04:43:32;6.50;99.90
23748;DHT22;12054;53.662;10.126;2023-02-20T04:45:58;6.50;99.90
23748;DHT22;12054;53.662;10.126;2023-02-20T04:48:23;6.50;99.90
23748;DHT22;12054;53.662;10.126;2023-02-20T04:50:49;6.50;99.90
23748;DHT22;12054;53.662;10.126;2023-02-20T04:53:15;6.50;99.90
23748;DHT22;12054;53.662;10.126;2023-02-20T04:55:40;6.50;99.90
23748;DHT22;12054;53.662;10.126;2023-02-20T04:58:06;6.50;99.90
23748;DHT22;12054;53.662;10.126;2023-02-20T05:00:31;6.50;99.90
23748;DHT22;12054;53.662;10.126;2023-02-20T05:02:57;6.50;99.90
23748;DHT22;12054;53.662;10.126;2023-02-20T05:05:27;6.50;99.90
23748;DHT22;12054;53.662;10.126;2023-02-20T05:08:02;6.50;99.90
23748;DHT22;12054;53.662;10.126;2023-02-20T05:10:30;6.50;99.90
23748;DHT22;12054;53.662;10.126;2023-02-20T05:12:55;6.60;99.90
23748;DHT22;12054;53.662;10.126;2023-02-20T05:15:22;6.60;99.90
23748;DHT22;12054;53.662;10.126;2023-02-20T05:17:48;6.60;99.90
23748;DHT22;12054;53.662;10.126;2023-02-20T05:20:15;6.60;99.90
23748;DHT22;12054;53.662;10.126;2023-02-20T05:22:40;6.60;99.90
23748;DHT22;12054;53.662;10.126;2023-02-20T05:25:06;6.60;99.90
23748;DHT22;12054;53.662;10.126;2023-02-20T05:27:32;6.60;99.90
23748;DHT22;12054;53.662;10.126;2023-02-20T05:29:59;6.70;99.90
23748;DHT22;12054;53.662;10.126;2023-02-20T05:32:28;6.70;99.90
23748;DHT22;12054;53.662;10.126;2023-02-20T05:34:54;6.70;99.90
23748;DHT22;12054;53.662;10.126;2023-02-20T05:37:22;6.70;99.90
23748;DHT22;12054;53.662;10.126;2023-02-20T05:39:48;6.70;99.90
23748;DHT22;12054;53.662;10.126;2023-02-20T05:42:15;6.70;99.90
23748;DHT22;12054;53.662;10.126;2023-02-20T05:44:40;6.70;99.90
23748;DHT22;12054;53.662;10.126;2023-02-20T05:47:06;6.70;99.90
23748;DHT22;12054;53.662;10.126;2023-02-20T05:49:32;6.80;99.90
23748;DHT22;12054;53.662;10.126;2023-02-20T05:51:59;6.80;99.90
23748;DHT22;12054;53.662;10.126;2023-02-20T05:54:25;6.80;99.90
23748;DHT22;12054;53.662;10.126;2023-02-20T05:56:51;6.80;99.90
23748;DHT22;12054;53.662;10.126;2023-02-20T05:59:19;6.80;99.90
23748;DHT22;12054;53.662;10.126;2023-02-20T06:01:45;6.80;99.90
23748;DHT22;12054;53.662;10.126;2023-02-20T06:04:11;6.80;99.90
23748;DHT22;12054;53.662;10.126;2023-02-20T06:06:40;6.80;99.90
23748;DHT22;12054;53.662;10.126;2023-02-20T06:09:10;6.80;99.90
23748;DHT22;12054;53.662;10.126;2023-02-20T06:11:37;6.80;99.90
23748;DHT22;12054;53.662;10.126;2023-02-20T06:14:05;6.80;99.90
23748;DHT22;12054;53.662;10.126;2023-02-20T06:16:30;6.80;99.90
23748;DHT22;12054;53.662;10.126;2023-02-20T06:18:56;6.80;99.90
23748;DHT22;12054;53.662;10.126;2023-02-20T06:21:24;6.80;99.90
23748;DHT22;12054;53.662;10.126;2023-02-20T06:23:51;6.80;99.90
23748;DHT22;12054;53.662;10.126;2023-02-20T06:26:17;6.80;99.90
23748;DHT22;12054;53.662;10.126;2023-02-20T06:28:43;6.80;99.90
23748;DHT22;12054;53.662;10.126;2023-02-20T06:31:10;6.80;99.90
23748;DHT22;12054;53.662;10.126;2023-02-20T06:33:36;6.80;99.90
23748;DHT22;12054;53.662;10.126;2023-02-20T06:36:03;6.80;99.90
23748;DHT22;12054;53.662;10.126;2023-02-20T06:38:28;6.80;99.90
23748;DHT22;12054;53.662;10.126;2023-02-20T06:40:54;6.80;99.90
23748;DHT22;12054;53.662;10.126;2023-02-20T06:43:19;6.80;99.90
23748;DHT22;12054;53.662;10.126;2023-02-20T06:45:46;6.80;99.90
23748;DHT22;12054;53.662;10.126;2023-02-20T06:48:12;6.90;99.90
23748;DHT22;12054;53.662;10.126;2023-02-20T06:50:39;6.90;99.90
23748;DHT22;12054;53.662;10.126;2023-02-20T06:53:05;6.90;99.90
23748;DHT22;12054;53.662;10.126;2023-02-20T06:55:31;6.90;99.90
23748;DHT22;12054;53.662;10.126;2023-02-20T06:57:57;6.90;99.90
23748;DHT22;12054;53.662;10.126;2023-02-20T07:00:23;7.00;99.90
23748;DHT22;12054;53.662;10.126;2023-02-20T07:02:48;7.00;99.90
23748;DHT22;12054;53.662;10.126;2023-02-20T07:05:14;7.00;99.90
23748;DHT22;12054;53.662;10.126;2023-02-20T07:07:40;7.00;99.90
23748;DHT22;12054;53.662;10.126;2023-02-20T07:10:06;7.00;99.90
23748;DHT22;12054;53.662;10.126;2023-02-20T07:12:32;7.00;99.90
23748;DHT22;12054;53.662;10.126;2023-02-20T07:14:58;7.10;99.90
23748;DHT22;12054;53.662;10.126;2023-02-20T07:17:24;7.10;99.90
23748;DHT22;12054;53.662;10.126;2023-02-20T07:19:50;7.10;99.90
23748;DHT22;12054;53.662;10.126;2023-02-20T07:22:15;7.10;99.90
23748;DHT22;12054;53.662;10.126;2023-02-20T07:24:41;7.10;99.90
23748;DHT22;12054;53.662;10.126;2023-02-20T07:27:08;7.10;99.90
23748;DHT22;12054;53.662;10.126;2023-02-20T07:29:35;7.20;99.90
23748;DHT22;12054;53.662;10.126;2023-02-20T07:32:01;7.20;99.90
23748;DHT22;12054;53.662;10.126;2023-02-20T07:34:27;7.20;99.90
23748;DHT22;12054;53.662;10.126;2023-02-20T07:36:52;7.20;99.90
23748;DHT22;12054;53.662;10.126;2023-02-20T07:39:18;7.20;99.90
23748;DHT22;12054;53.662;10.126;2023-02-20T07:41:44;7.20;99.90
23748;DHT22;12054;53.662;10.126;2023-02-20T07:44:09;7.20;99.90
23748;DHT22;12054;53.662;10.126;2023-02-20T07:46:37;7.30;99.90
23748;DHT22;12054;53.662;10.126;2023-02-20T07:49:04;7.30;99.90
23748;DHT22;12054;53.662;10.126;2023-02-20T07:51:30;7.30;99.90
23748;DHT22;12054;53.662;10.126;2023-02-20T07:53:56;7.30;99.90
23748;DHT22;12054;53.662;10.126;2023-02-20T07:56:22;7.30;99.90
23748;DHT22;12054;53.662;10.126;2023-02-20T07:58:48;7.30;99.90
23748;DHT22;12054;53.662;10.126;2023-02-20T08:01:14;7.60;99.90
23748;DHT22;12054;53.662;10.126;2023-02-20T08:03:40;7.40;99.90
23748;DHT22;12054;53.662;10.126;2023-02-20T08:06:05;7.40;99.90
23748;DHT22;12054;53.662;10.126;2023-02-20T08:08:31;7.40;99.90
23748;DHT22;12054;53.662;10.126;2023-02-20T08:10:57;7.40;99.90
23748;DHT22;12054;53.662;10.126;2023-02-20T08:13:23;7.40;99.90
23748;DHT22;12054;53.662;10.126;2023-02-20T08:15:48;7.50;99.90
23748;DHT22;12054;53.662;10.126;2023-02-20T08:18:16;7.50;99.90
23748;DHT22;12054;53.662;10.126;2023-02-20T08:20:42;7.50;99.90
23748;DHT22;12054;53.662;10.126;2023-02-20T08:23:22;7.50;99.90
23748;DHT22;12054;53.662;10.126;2023-02-20T08:25:48;7.50;99.90
23748;DHT22;12054;53.662;10.126;2023-02-20T08:28:14;7.50;99.90
23748;DHT22;12054;53.662;10.126;2023-02-20T08:30:39;7.60;99.90
23748;DHT22;12054;53.662;10.126;2023-02-20T08:33:05;7.60;99.90
23748;DHT22;12054;53.662;10.126;2023-02-20T08:35:32;7.60;99.90
23748;DHT22;12054;53.662;10.126;2023-02-20T08:38:01;7.60;99.90
23748;DHT22;12054;53.662;10.126;2023-02-20T08:40:27;7.60;99.90
23748;DHT22;12054;53.662;10.126;2023-02-20T08:42:53;7.70;99.90
23748;DHT22;12054;53.662;10.126;2023-02-20T08:45:18;7.70;99.90
23748;DHT22;12054;53.662;10.126;2023-02-20T08:47:44;7.70;99.90
23748;DHT22;12054;53.662;10.126;2023-02-20T08:50:09;7.70;99.90
23748;DHT22;12054;53.662;10.126;2023-02-20T08:52:35;7.70;99.90
23748;DHT22;12054;53.662;10.126;2023-02-20T08:55:01;7.70;99.90
23748;DHT22;12054;53.662;10.126;2023-02-20T08:57:26;7.80;99.90
23748;DHT22;12054;53.662;10.126;2023-02-20T08:59:52;7.70;99.90
23748;DHT22;12054;53.662;10.126;2023-02-20T09:02:20;7.80;99.90
23748;DHT22;12054;53.662;10.126;2023-02-20T09:04:46;7.80;99.90
23748;DHT22;12054;53.662;10.126;2023-02-20T09:07:13;7.90;99.90
23748;DHT22;12054;53.662;10.126;2023-02-20T09:09:38;7.80;99.90
23748;DHT22;12054;53.662;10.126;2023-02-20T09:12:05;7.90;99.90
23748;DHT22;12054;53.662;10.126;2023-02-20T09:14:30;7.90;99.90
23748;DHT22;12054;53.662;10.126;2023-02-20T09:16:56;7.90;99.90
23748;DHT22;12054;53.662;10.126;2023-02-20T09:19:21;7.90;99.90
23748;DHT22;12054;53.662;10.126;2023-02-20T09:21:49;7.90;99.90
23748;DHT22;12054;53.662;10.126;2023-02-20T09:24:15;7.90;99.90
23748;DHT22;12054;53.662;10.126;2023-02-20T09:26:40;8.00;99.90
23748;DHT22;12054;53.662;10.126;2023-02-20T09:29:06;8.00;99.90
23748;DHT22;12054;53.662;10.126;2023-02-20T09:31:31;8.00;99.90
23748;DHT22;12054;53.662;10.126;2023-02-20T09:33:57;8.00;99.90
23748;DHT22;12054;53.662;10.126;2023-02-20T09:36:22;8.00;99.90
23748;DHT22;12054;53.662;10.126;2023-02-20T09:38:48;8.10;99.90
23748;DHT22;12054;53.662;10.126;2023-02-20T09:44:13;8.10;99.90
23748;DHT22;12054;53.662;10.126;2023-02-20T09:46:43;8.10;99.90
23748;DHT22;12054;53.662;10.126;2023-02-20T09:49:16;8.10;99.90
23748;DHT22;12054;53.662;10.126;2023-02-20T09:51:59;8.10;99.90
23748;DHT22;12054;53.662;10.126;2023-02-20T09:54:32;8.10;99.90
23748;DHT22;12054;53.662;10.126;2023-02-20T09:57:01;8.20;99.90
23748;DHT22;12054;53.662;10.126;2023-02-20T09:59:31;8.10;99.90
23748;DHT22;12054;53.662;10.126;2023-02-20T10:02:01;8.20;99.90
23748;DHT22;12054;53.662;10.126;2023-02-20T10:04:37;8.20;99.90
23748;DHT22;12054;53.662;10.126;2023-02-20T10:07:25;8.20;99.90
23748;DHT22;12054;53.662;10.126;2023-02-20T10:09:53;8.30;99.90
23748;DHT22;12054;53.662;10.126;2023-02-20T10:12:37;8.30;99.90
23748;DHT22;12054;53.662;10.126;2023-02-20T10:15:19;8.30;99.90
23748;DHT22;12054;53.662;10.126;2023-02-20T10:20:49;8.30;99.90
23748;DHT22;12054;53.662;10.126;2023-02-20T10:26:01;8.40;99.90
23748;DHT22;12054;53.662;10.126;2023-02-20T10:28:29;8.40;99.90
23748;DHT22;12054;53.662;10.126;2023-02-20T10:33:56;8.50;99.90
23748;DHT22;12054;53.662;10.126;2023-02-20T10:36:33;8.50;99.90
23748;DHT22;12054;53.662;10.126;2023-02-20T10:39:10;8.50;99.90
23748;DHT22;12054;53.662;10.126;2023-02-20T10:44:29;8.60;99.90
23748;DHT22;12054;53.662;10.126;2023-02-20T10:47:18;8.60;99.90
23748;DHT22;12054;53.662;10.126;2023-02-20T10:49:56;8.70;99.90
23748;DHT22;12054;53.662;10.126;2023-02-20T10:52:28;8.70;99.90
23748;DHT22;12054;53.662;10.126;2023-02-20T10:57:35;8.80;99.90
23748;DHT22;12054;53.662;10.126;2023-02-20T11:00:15;8.80;99.90
23748;DHT22;12054;53.662;10.126;2023-02-20T11:02:53;8.80;99.90
23748;DHT22;12054;53.662;10.126;2023-02-20T11:05:22;8.90;99.90
23748;DHT22;12054;53.662;10.126;2023-02-20T11:07:49;8.90;99.90
23748;DHT22;12054;53.662;10.126;2023-02-20T11:10:15;8.90;99.90
23748;DHT22;12054;53.662;10.126;2023-02-20T11:12:45;8.90;99.90
23748;DHT22;12054;53.662;10.126;2023-02-20T11:15:16;8.90;99.90
23748;DHT22;12054;53.662;10.126;2023-02-20T11:17:43;9.00;99.90
23748;DHT22;12054;53.662;10.126;2023-02-20T11:22:57;9.00;99.90
23748;DHT22;12054;53.662;10.126;2023-02-20T11:25:28;9.10;99.90
23748;DHT22;12054;53.662;10.126;2023-02-20T11:28:18;9.10;99.90
23748;DHT22;12054;53.662;10.126;2023-02-20T11:30:48;9.10;99.90
23748;DHT22;12054;53.662;10.126;2023-02-20T11:33:20;9.10;99.90
23748;DHT22;12054;53.662;10.126;2023-02-20T11:35:52;9.20;99.90
23748;DHT22;12054;53.662;10.126;2023-02-20T11:38:27;9.20;99.90
23748;DHT22;12054;53.662;10.126;2023-02-20T11:43:28;9.20;99.90
23748;DHT22;12054;53.662;10.126;2023-02-20T11:46:14;9.30;99.90
23748;DHT22;12054;53.662;10.126;2023-02-20T11:49:04;9.30;99.90
23748;DHT22;12054;53.662;10.126;2023-02-20T11:51:34;9.30;99.90
23748;DHT22;12054;53.662;10.126;2023-02-20T11:54:11;9.40;99.90
23748;DHT22;12054;53.662;10.126;2023-02-20T11:56:37;9.40;99.90
23748;DHT22;12054;53.662;10.126;2023-02-20T11:59:29;9.40;99.90
23748;DHT22;12054;53.662;10.126;2023-02-20T12:01:58;9.50;99.90
23748;DHT22;12054;53.662;10.126;2023-02-20T12:04:34;9.50;99.90
23748;DHT22;12054;53.662;10.126;2023-02-20T12:07:00;9.50;99.90
23748;DHT22;12054;53.662;10.126;2023-02-20T12:09:42;9.50;99.90
23748;DHT22;12054;53.662;10.126;2023-02-20T12:12:12;9.50;99.90
23748;DHT22;12054;53.662;10.126;2023-02-20T12:14:38;9.50;99.90
23748;DHT22;12054;53.662;10.126;2023-02-20T12:17:20;9.60;99.90
23748;DHT22;12054;53.662;10.126;2023-02-20T12:19:54;9.60;99.90
23748;DHT22;12054;53.662;10.126;2023-02-20T12:22:30;9.60;99.90
23748;DHT22;12054;53.662;10.126;2023-02-20T12:25:17;9.60;99.90
23748;DHT22;12054;53.662;10.126;2023-02-20T12:33:47;9.70;99.90
23748;DHT22;12054;53.662;10.126;2023-02-20T12:41:53;9.70;99.90
23748;DHT22;12054;53.662;10.126;2023-02-20T12:44:37;9.70;99.90
23748;DHT22;12054;53.662;10.126;2023-02-20T12:47:30;9.80;99.90
23748;DHT22;12054;53.662;10.126;2023-02-20T12:50:20;9.70;99.90
23748;DHT22;12054;53.662;10.126;2023-02-20T12:58:54;9.80;99.90
23748;DHT22;12054;53.662;10.126;2023-02-20T13:01:22;9.80;99.90
23748;DHT22;12054;53.662;10.126;2023-02-20T13:06:21;9.90;99.90
23748;DHT22;12054;53.662;10.126;2023-02-20T13:09:32;9.90;99.90
23748;DHT22;12054;53.662;10.126;2023-02-20T13:11:41;9.90;99.90
23748;DHT22;12054;53.662;10.126;2023-02-20T13:19:35;10.00;99.90
23748;DHT22;12054;53.662;10.126;2023-02-20T13:22:04;10.00;99.90
23748;DHT22;12054;53.662;10.126;2023-02-20T13:24:39;10.00;99.90
23748;DHT22;12054;53.662;10.126;2023-02-20T13:27:10;10.00;99.90
23748;DHT22;12054;53.662;10.126;2023-02-20T13:30:17;10.00;99.90
23748;DHT22;12054;53.662;10.126;2023-02-20T13:32:43;10.00;99.90
23748;DHT22;12054;53.662;10.126;2023-02-20T13:38:15;10.00;99.90
23748;DHT22;12054;53.662;10.126;2023-02-20T13:40:44;10.10;99.90
23748;DHT22;12054;53.662;10.126;2023-02-20T13:46:08;10.00;99.90
23748;DHT22;12054;53.662;10.126;2023-02-20T13:53:51;10.10;99.90
23748;DHT22;12054;53.662;10.126;2023-02-20T13:56:19;10.10;99.90
23748;DHT22;12054;53.662;10.126;2023-02-20T13:58:46;10.10;99.90
23748;DHT22;12054;53.662;10.126;2023-02-20T14:01:13;10.10;99.90
23748;DHT22;12054;53.662;10.126;2023-02-20T14:03:38;10.10;99.90
23748;DHT22;12054;53.662;10.126;2023-02-20T14:06:11;10.10;99.90
23748;DHT22;12054;53.662;10.126;2023-02-20T14:08:48;10.10;99.90
23748;DHT22;12054;53.662;10.126;2023-02-20T14:11:24;10.10;99.90
23748;DHT22;12054;53.662;10.126;2023-02-20T14:13:51;10.10;99.90
23748;DHT22;12054;53.662;10.126;2023-02-20T14:16:25;10.10;99.90
23748;DHT22;12054;53.662;10.126;2023-02-20T14:18:56;10.10;99.90
23748;DHT22;12054;53.662;10.126;2023-02-20T14:21:22;10.20;99.90
23748;DHT22;12054;53.662;10.126;2023-02-20T14:23:49;10.10;99.90
23748;DHT22;12054;53.662;10.126;2023-02-20T14:26:25;10.20;99.90
23748;DHT22;12054;53.662;10.126;2023-02-20T14:28:54;10.20;99.90
23748;DHT22;12054;53.662;10.126;2023-02-20T14:31:24;10.20;99.90
23748;DHT22;12054;53.662;10.126;2023-02-20T14:33:58;10.20;99.90
23748;DHT22;12054;53.662;10.126;2023-02-20T14:36:31;10.20;99.90
23748;DHT22;12054;53.662;10.126;2023-02-20T14:42:00;10.20;99.90
23748;DHT22;12054;53.662;10.126;2023-02-20T14:44:29;10.30;99.90
23748;DHT22;12054;53.662;10.126;2023-02-20T14:47:16;10.30;99.90
23748;DHT22;12054;53.662;10.126;2023-02-20T14:49:42;10.20;99.90
23748;DHT22;12054;53.662;10.126;2023-02-20T14:52:19;10.20;99.90
23748;DHT22;12054;53.662;10.126;2023-02-20T14:54:59;10.20;99.90
23748;DHT22;12054;53.662;10.126;2023-02-20T14:57:26;10.20;99.90
23748;DHT22;12054;53.662;10.126;2023-02-20T15:00:10;10.20;99.90
23748;DHT22;12054;53.662;10.126;2023-02-20T15:02:40;10.20;99.90
23748;DHT22;12054;53.662;10.126;2023-02-20T15:05:08;10.10;99.90
23748;DHT22;12054;53.662;10.126;2023-02-20T15:07:36;10.20;99.90
23748;DHT22;12054;53.662;10.126;2023-02-20T15:10:07;10.20;99.90
23748;DHT22;12054;53.662;10.126;2023-02-20T15:12:56;10.20;99.90
23748;DHT22;12054;53.662;10.126;2023-02-20T15:15:23;10.20;99.90
23748;DHT22;12054;53.662;10.126;2023-02-20T15:18:46;10.10;99.90
23748;DHT22;12054;53.662;10.126;2023-02-20T15:20:52;10.10;99.90
23748;DHT22;12054;53.662;10.126;2023-02-20T15:25:50;10.10;99.90
23748;DHT22;12054;53.662;10.126;2023-02-20T15:28:23;10.00;99.90
23748;DHT22;12054;53.662;10.126;2023-02-20T15:33:39;10.00;99.90
23748;DHT22;12054;53.662;10.126;2023-02-20T15:36:08;10.00;99.90
23748;DHT22;12054;53.662;10.126;2023-02-20T15:38:36;9.90;99.90
23748;DHT22;12054;53.662;10.126;2023-02-20T15:41:03;9.90;99.90
23748;DHT22;12054;53.662;10.126;2023-02-20T15:43:29;9.90;99.90
23748;DHT22;12054;53.662;10.126;2023-02-20T15:45:54;9.90;99.90
23748;DHT22;12054;53.662;10.126;2023-02-20T15:48:20;9.90;99.90
23748;DHT22;12054;53.662;10.126;2023-02-20T15:50:47;9.90;99.90
23748;DHT22;12054;53.662;10.126;2023-02-20T15:55:49;9.80;99.90
23748;DHT22;12054;53.662;10.126;2023-02-20T15:58:35;9.80;99.90
23748;DHT22;12054;53.662;10.126;2023-02-20T16:01:02;9.80;99.90
23748;DHT22;12054;53.662;10.126;2023-02-20T16:03:29;9.80;99.90
23748;DHT22;12054;53.662;10.126;2023-02-20T16:05:56;9.80;99.90
23748;DHT22;12054;53.662;10.126;2023-02-20T16:08:22;9.70;99.90
23748;DHT22;12054;53.662;10.126;2023-02-20T16:10:49;9.70;99.90
23748;DHT22;12054;53.662;10.126;2023-02-20T16:13:28;9.70;99.90
23748;DHT22;12054;53.662;10.126;2023-02-20T16:15:54;9.70;99.90
23748;DHT22;12054;53.662;10.126;2023-02-20T16:18:20;9.70;99.90
23748;DHT22;12054;53.662;10.126;2023-02-20T16:20:46;9.70;99.90
23748;DHT22;12054;53.662;10.126;2023-02-20T16:23:11;9.70;99.90
23748;DHT22;12054;53.662;10.126;2023-02-20T16:25:37;9.70;99.90
23748;DHT22;12054;53.662;10.126;2023-02-20T16:28:03;9.70;99.90
23748;DHT22;12054;53.662;10.126;2023-02-20T16:30:33;9.60;99.90
23748;DHT22;12054;53.662;10.126;2023-02-20T16:33:17;9.70;99.90
23748;DHT22;12054;53.662;10.126;2023-02-20T16:35:44;9.60;99.90
23748;DHT22;12054;53.662;10.126;2023-02-20T16:38:10;9.60;99.90
23748;DHT22;12054;53.662;10.126;2023-02-20T16:40:36;9.60;99.90
23748;DHT22;12054;53.662;10.126;2023-02-20T16:43:02;9.60;99.90
23748;DHT22;12054;53.662;10.126;2023-02-20T16:45:27;9.60;99.90
23748;DHT22;12054;53.662;10.126;2023-02-20T16:47:54;9.60;99.90
23748;DHT22;12054;53.662;10.126;2023-02-20T16:50:23;9.60;99.90
23748;DHT22;12054;53.662;10.126;2023-02-20T16:52:51;9.60;99.90
23748;DHT22;12054;53.662;10.126;2023-02-20T16:55:19;9.60;99.90
23748;DHT22;12054;53.662;10.126;2023-02-20T16:57:45;9.60;99.90
23748;DHT22;12054;53.662;10.126;2023-02-20T17:00:15;9.60;99.90
23748;DHT22;12054;53.662;10.126;2023-02-20T17:02:43;9.60;99.90
23748;DHT22;12054;53.662;10.126;2023-02-20T17:05:09;9.60;99.90
23748;DHT22;12054;53.662;10.126;2023-02-20T17:07:34;9.60;99.90